This is the latest recevied weather packets stored in our database for station/object K1AWR. If no packets are shown the sender has not sent any weather packets the latest 10 day(s).
| Time | Temp. | Humidity | Pressure | Rain* | Wind** | Luminosity | Snow |
|---|---|---|---|---|---|---|---|
| 1777898361 | 15° C | 42% | 1012.3 hPa | 0 mm | - | 197 W/m² | - |
| 1777898059 | 14.44° C | 44% | 1012.5 hPa | 0 mm | - | 298 W/m² | - |
| 1777897755 | 14.44° C | 43% | 1012.4 hPa | 0 mm | - | 263 W/m² | - |
| 1777897451 | 14.44° C | 43% | 1012.5 hPa | 0 mm | - | 263 W/m² | - |
| 1777897148 | 13.89° C | 45% | 1012.5 hPa | 0 mm | - | 241 W/m² | - |
| 1777896844 | 13.89° C | 46% | 1012.6 hPa | 0 mm | - | 236 W/m² | - |
| 1777896541 | 12.78° C | 49% | 1012.6 hPa | 0 mm | - | 113 W/m² | - |
| 1777896238 | 12.22° C | 51% | 1012.8 hPa | 0 mm | - | 59 W/m² | - |
| 1777895936 | 12.22° C | 48% | 1012.7 hPa | 0 mm | - | 56 W/m² | - |
| 1777895633 | 11.67° C | 49% | 1012.9 hPa | 0 mm | - | 57 W/m² | - |
| 1777895331 | 11.67° C | 52% | 1012.7 hPa | 0 mm | - | 60 W/m² | - |
| 1777895029 | 11.11° C | 50% | 1012.8 hPa | 0 mm | - | 88 W/m² | - |
| 1777894725 | 10.56° C | 54% | 1012.8 hPa | 0 mm | - | 61 W/m² | - |
| 1777894422 | 10.56° C | 53% | 1012.7 hPa | 0 mm | - | 48 W/m² | - |
| 1777894120 | 10° C | 57% | 1012.6 hPa | 0 mm | - | 58 W/m² | - |
| 1777893816 | 10° C | 57% | 1012.7 hPa | 0 mm | - | 65 W/m² | - |
| 1777893513 | 9.44° C | 59% | 1012.6 hPa | 0 mm | - | 53 W/m² | - |
| 1777893209 | 8.89° C | 59% | 1012.8 hPa | 0 mm | - | 41 W/m² | - |
| 1777892906 | 8.33° C | 61% | 1012.8 hPa | 0 mm | - | 37 W/m² | - |
| 1777892603 | 7.78° C | 65% | 1012.5 hPa | 0 mm | - | 38 W/m² | - |
| 1777892298 | 7.22° C | 71% | 1012.7 hPa | 0 mm | - | 41 W/m² | - |
| 1777891994 | 5.56° C | 75% | 1012.6 hPa | 0 mm | - | 44 W/m² | - |
| 1777891692 | 3.89° C | 84% | 1012.6 hPa | 0 mm | - | 35 W/m² | - |
| 1777891388 | 3.33° C | 87% | 1012.5 hPa | 0 mm | - | 25 W/m² | - |
| 1777891083 | 3.33° C | 88% | 1012.5 hPa | 0 mm | - | 22 W/m² | - |
* Rain latest hour (hover to see other rain measurements)
** Current wind speed in m/s (hover to see current wind gust speed)